To NAV CANADA Home Page Login to a new session Search on AWWS site Disclaimer Vers la page française équivalente Tips FAQ What's new on the site To the Forecasts and Observations / NOTAM section To "File a Flight Plan" website Publications and other links Update of the User's profile FIC Telephone Numbers My Weather Data Folder Route Weather Data Regional Weather Data Local Weather Data To the Forecasts and Observations / NOTAM section
Request Generated 08/06/2020 at 18:15:21 UTC . Weather information available at that time is displayed.

METAR/TAF

WINNIPEG/JAMES ARMSTRONG RICHARDSON INTL/MB    

METAR CYWG 061800Z 20013KT 15SM FEW040 28/17 A2991 RMK CU2 SLP130 DENSITY ALT 2500FT=
METAR CYWG 061700Z 19006G16KT 15SM FEW034 26/18 A2992 RMK CU1 SLP133 DENSITY ALT 2300FT=
METAR CYWG 061600Z 20009KT 170V230 15SM FEW030 25/18 A2992 RMK CF1 CF TR SLP134 DENSITY ALT 2100FT=

TAF CYWG 061738Z 0618/0718 19012KT P6SM FEW040
FM071400 16015KT P6SM SCT015
RMK NXT FCST BY 070000Z=
Your time UTC time
Weather data provided by Environment Canada and NAV CANADA